Etusivu
METAR-TAF:

METAR-TAF

Lentoasemat :

Khartum, Sudan

Leveyspiiri: 15-36N, Pituuspiiri: 032-33E, korkeus merenpinnasta: 382 m

Tämänhetkinen sää

Tämä raportti tehtiin 21 minuuttia sitten, kello 10.00 UTC
tyyntä
Lämpötila 40°C
Kosteus 11%
Ilmanpaine 1010 hPa
Näkyvyys 10 km tai enemmän
ei pilviä alle 1500 m:ssä eikä cumulonimbus-pilviä

METAR: HSSS 281000Z 00000KT CAVOK 40/04 Q1010 NOSIG

Aika: 13:21 (10:21 UTC)

Sääennuste

Tämä raportti tehtiin 5 tuntia ja 21 minuuttia sitten, kello 05.00 UTC
Ennuste voimassa 28. päivästä klo 06 UTC - 29. päivään klo 12 UTC
Tuuli 6 kn etelästä puuskistuen 16 kn:hen
Näkyvyys 10 km tai enemmän
Hajanaisia pilviä 4000 ft:n korkeudessa
Hajanaisia pilviä 14000 ft:n korkeudessa
Ajoittain
28. päivästä klo 06 UTC - 28. päivään klo 09 UTC
Näkyvyys: 6000 m

TAF: HSSS 280500Z 2806/2912 18006G16KT 9999 SCT040 SCT140 TEMPO 2806/2809 6000

Säähavainnot ja -ennusteet yli 4000 lentoasemalta (METAR- ja TAF-raportit).

Käytössä olevat sääasemat on merkitty karttaan keltaisilla ja punaisilla pisteillä.

Aseta hiiri pisteen päälle nähdäksesi sääaseman nimen.

Klikkaa sitten nähdäksesi säähavainnot ja -ennusteet.

Kartan vaihtaminen: klikkaa mustalla rastilla varustettuja vihreitä pisteitä, niin voit zoomata sisään; viivalla varustettua vihreää pistettä, niin voit zoomata ulos tai vihreitä nuolia, niin pääset viereisille kartoille.


METAR-TAF: